sensor_id;sensor_type;location;lat;lon;timestamp;pressure;altitude;pressure_sealevel;temperature;humidity
85039;BME280;75366;54.588;18.456;2024-02-28T00:03:45;101018.56;;;2.27;90.92
85039;BME280;75366;54.588;18.456;2024-02-28T00:09:06;101024.94;;;2.25;90.91
85039;BME280;75366;54.588;18.456;2024-02-28T00:14:08;101020.41;;;2.26;90.84
85039;BME280;75366;54.588;18.456;2024-02-28T00:19:11;101018.43;;;2.28;90.84
85039;BME280;75366;54.588;18.456;2024-02-28T00:24:13;101018.80;;;2.28;90.80
85039;BME280;75366;54.588;18.456;2024-02-28T00:29:15;101020.34;;;2.30;90.75
85039;BME280;75366;54.588;18.456;2024-02-28T00:34:17;101011.55;;;2.28;90.77
85039;BME280;75366;54.588;18.456;2024-02-28T00:39:39;101008.69;;;2.29;90.83
85039;BME280;75366;54.588;18.456;2024-02-28T00:45:00;101009.20;;;2.32;90.79
85039;BME280;75366;54.588;18.456;2024-02-28T00:50:22;101013.38;;;2.34;90.72
85039;BME280;75366;54.588;18.456;2024-02-28T00:55:43;101011.72;;;2.32;90.59
85039;BME280;75366;54.588;18.456;2024-02-28T01:00:45;101008.99;;;2.32;90.61
85039;BME280;75366;54.588;18.456;2024-02-28T01:05:48;101002.61;;;2.30;90.72
85039;BME280;75366;54.588;18.456;2024-02-28T01:10:50;100996.56;;;2.21;90.66
85039;BME280;75366;54.588;18.456;2024-02-28T01:15:52;100998.41;;;2.23;90.70
85039;BME280;75366;54.588;18.456;2024-02-28T01:20:53;100996.90;;;2.19;90.80
85039;BME280;75366;54.588;18.456;2024-02-28T01:25:55;100993.01;;;2.18;90.86
85039;BME280;75366;54.588;18.456;2024-02-28T01:30:56;100989.87;;;2.18;90.88
85039;BME280;75366;54.588;18.456;2024-02-28T01:35:58;100989.44;;;2.18;90.90
85039;BME280;75366;54.588;18.456;2024-02-28T01:41:00;100984.91;;;2.19;90.75
85039;BME280;75366;54.588;18.456;2024-02-28T01:46:04;100978.45;;;2.17;90.74
85039;BME280;75366;54.588;18.456;2024-02-28T01:51:09;100977.06;;;2.17;90.77
85039;BME280;75366;54.588;18.456;2024-02-28T01:56:13;100973.02;;;2.17;90.71
85039;BME280;75366;54.588;18.456;2024-02-28T02:01:17;100974.70;;;2.17;90.65
85039;BME280;75366;54.588;18.456;2024-02-28T02:06:19;100965.27;;;2.16;90.64
85039;BME280;75366;54.588;18.456;2024-02-28T02:11:21;100965.08;;;2.15;90.69
85039;BME280;75366;54.588;18.456;2024-02-28T02:16:43;100970.13;;;2.15;90.68
85039;BME280;75366;54.588;18.456;2024-02-28T02:22:05;100970.66;;;2.15;90.69
85039;BME280;75366;54.588;18.456;2024-02-28T02:27:29;100971.05;;;2.16;90.58
85039;BME280;75366;54.588;18.456;2024-02-28T02:32:50;100972.59;;;2.16;90.44
85039;BME280;75366;54.588;18.456;2024-02-28T02:37:52;100971.55;;;2.18;90.54
85039;BME280;75366;54.588;18.456;2024-02-28T02:42:53;100969.99;;;2.18;90.65
85039;BME280;75366;54.588;18.456;2024-02-28T02:47:55;100961.70;;;2.15;90.47
85039;BME280;75366;54.588;18.456;2024-02-28T02:52:57;100971.52;;;2.15;90.57
85039;BME280;75366;54.588;18.456;2024-02-28T02:57:59;100974.12;;;2.18;90.60
85039;BME280;75366;54.588;18.456;2024-02-28T03:03:01;100964.94;;;2.19;90.33
85039;BME280;75366;54.588;18.456;2024-02-28T03:08:03;100964.58;;;2.19;90.39
85039;BME280;75366;54.588;18.456;2024-02-28T03:13:04;100968.54;;;2.20;90.34
85039;BME280;75366;54.588;18.456;2024-02-28T03:18:08;100967.15;;;2.21;90.38
85039;BME280;75366;54.588;18.456;2024-02-28T03:23:09;100966.98;;;2.22;90.29
85039;BME280;75366;54.588;18.456;2024-02-28T03:28:11;100967.45;;;2.23;90.37
85039;BME280;75366;54.588;18.456;2024-02-28T03:33:12;100968.08;;;2.22;90.18
85039;BME280;75366;54.588;18.456;2024-02-28T03:38:14;100971.45;;;2.20;90.24
85039;BME280;75366;54.588;18.456;2024-02-28T03:43:15;100974.41;;;2.19;90.26
85039;BME280;75366;54.588;18.456;2024-02-28T03:48:17;100976.00;;;2.22;90.27
85039;BME280;75366;54.588;18.456;2024-02-28T03:53:18;100975.41;;;2.21;90.23
85039;BME280;75366;54.588;18.456;2024-02-28T03:58:19;100982.23;;;2.20;90.31
85039;BME280;75366;54.588;18.456;2024-02-28T04:03:21;100979.92;;;2.20;90.27
85039;BME280;75366;54.588;18.456;2024-02-28T04:08:23;100972.61;;;2.19;90.20
85039;BME280;75366;54.588;18.456;2024-02-28T04:13:24;100978.84;;;2.17;90.24
85039;BME280;75366;54.588;18.456;2024-02-28T04:18:26;100977.75;;;2.17;90.43
85039;BME280;75366;54.588;18.456;2024-02-28T04:23:27;100974.70;;;2.17;90.34
85039;BME280;75366;54.588;18.456;2024-02-28T04:28:29;100977.74;;;2.16;90.31
85039;BME280;75366;54.588;18.456;2024-02-28T04:46:08;100969.45;;;2.16;90.26
85039;BME280;75366;54.588;18.456;2024-02-28T04:51:10;100972.35;;;2.17;90.27
85039;BME280;75366;54.588;18.456;2024-02-28T04:56:11;100971.64;;;2.22;90.20
85039;BME280;75366;54.588;18.456;2024-02-28T05:01:13;100980.52;;;2.24;90.07
85039;BME280;75366;54.588;18.456;2024-02-28T05:06:15;100980.02;;;2.24;90.00
85039;BME280;75366;54.588;18.456;2024-02-28T05:11:17;100978.44;;;2.24;89.99
85039;BME280;75366;54.588;18.456;2024-02-28T05:16:18;100976.92;;;2.23;89.95
85039;BME280;75366;54.588;18.456;2024-02-28T05:21:20;100976.42;;;2.23;90.05
85039;BME280;75366;54.588;18.456;2024-02-28T05:26:22;100980.59;;;2.25;90.00
85039;BME280;75366;54.588;18.456;2024-02-28T05:31:25;100988.15;;;2.27;90.08
85039;BME280;75366;54.588;18.456;2024-02-28T05:36:27;100988.02;;;2.26;90.04
85039;BME280;75366;54.588;18.456;2024-02-28T05:41:29;100990.30;;;2.26;90.02
85039;BME280;75366;54.588;18.456;2024-02-28T05:46:31;100988.02;;;2.26;90.07
85039;BME280;75366;54.588;18.456;2024-02-28T05:51:33;100991.78;;;2.26;90.04
85039;BME280;75366;54.588;18.456;2024-02-28T05:56:35;100998.15;;;2.25;90.07
85039;BME280;75366;54.588;18.456;2024-02-28T06:01:37;100999.11;;;2.26;90.14
85039;BME280;75366;54.588;18.456;2024-02-28T06:06:41;101004.98;;;2.27;89.92
85039;BME280;75366;54.588;18.456;2024-02-28T06:11:43;101002.64;;;2.29;89.94
85039;BME280;75366;54.588;18.456;2024-02-28T06:16:48;101008.78;;;2.28;89.99
85039;BME280;75366;54.588;18.456;2024-02-28T06:21:50;101013.70;;;2.27;90.05
85039;BME280;75366;54.588;18.456;2024-02-28T06:26:51;101015.16;;;2.29;90.02
85039;BME280;75366;54.588;18.456;2024-02-28T06:32:13;101018.86;;;2.32;89.96
85039;BME280;75366;54.588;18.456;2024-02-28T06:37:14;101016.11;;;2.37;90.12
85039;BME280;75366;54.588;18.456;2024-02-28T06:42:16;101012.89;;;2.40;90.02
85039;BME280;75366;54.588;18.456;2024-02-28T06:47:18;101015.31;;;2.42;89.87
85039;BME280;75366;54.588;18.456;2024-02-28T06:52:19;101016.80;;;2.41;89.94
85039;BME280;75366;54.588;18.456;2024-02-28T06:57:21;101025.91;;;2.46;89.99
85039;BME280;75366;54.588;18.456;2024-02-28T07:02:23;101028.62;;;2.50;90.07
85039;BME280;75366;54.588;18.456;2024-02-28T07:07:24;101036.25;;;2.50;89.85
85039;BME280;75366;54.588;18.456;2024-02-28T07:12:26;101039.27;;;2.48;89.86
85039;BME280;75366;54.588;18.456;2024-02-28T07:17:28;101042.63;;;2.47;89.93
85039;BME280;75366;54.588;18.456;2024-02-28T07:22:29;101048.31;;;2.46;89.82
85039;BME280;75366;54.588;18.456;2024-02-28T07:27:31;101050.83;;;2.49;89.83
85039;BME280;75366;54.588;18.456;2024-02-28T07:32:32;101051.90;;;2.52;89.91
85039;BME280;75366;54.588;18.456;2024-02-28T07:37:36;101047.55;;;2.48;89.91
85039;BME280;75366;54.588;18.456;2024-02-28T07:42:39;101055.30;;;2.51;89.95
85039;BME280;75366;54.588;18.456;2024-02-28T07:48:01;101063.30;;;2.52;90.00
85039;BME280;75366;54.588;18.456;2024-02-28T07:53:22;101063.38;;;2.48;89.88
85039;BME280;75366;54.588;18.456;2024-02-28T07:58:24;101065.98;;;2.47;90.05
85039;BME280;75366;54.588;18.456;2024-02-28T08:03:45;101075.89;;;2.50;90.08
85039;BME280;75366;54.588;18.456;2024-02-28T08:09:03;101078.01;;;2.51;90.21
85039;BME280;75366;54.588;18.456;2024-02-28T08:14:05;101082.34;;;2.57;90.16
85039;BME280;75366;54.588;18.456;2024-02-28T08:19:07;101084.20;;;2.62;90.06
85039;BME280;75366;54.588;18.456;2024-02-28T08:24:09;101083.55;;;2.64;90.18
85039;BME280;75366;54.588;18.456;2024-02-28T08:29:10;101082.22;;;2.67;90.04
85039;BME280;75366;54.588;18.456;2024-02-28T08:34:12;101078.75;;;2.66;90.08
85039;BME280;75366;54.588;18.456;2024-02-28T08:39:14;101079.11;;;2.66;89.99
85039;BME280;75366;54.588;18.456;2024-02-28T08:44:16;101076.09;;;2.67;90.13
85039;BME280;75366;54.588;18.456;2024-02-28T08:49:17;101075.80;;;2.69;90.06
85039;BME280;75366;54.588;18.456;2024-02-28T08:54:39;101080.25;;;2.70;90.15
85039;BME280;75366;54.588;18.456;2024-02-28T09:00:00;101091.09;;;2.76;90.16
85039;BME280;75366;54.588;18.456;2024-02-28T09:05:04;101089.31;;;2.81;90.19
85039;BME280;75366;54.588;18.456;2024-02-28T09:10:05;101088.17;;;2.83;90.08
85039;BME280;75366;54.588;18.456;2024-02-28T09:15:07;101087.69;;;2.83;90.01
85039;BME280;75366;54.588;18.456;2024-02-28T09:20:10;101092.15;;;2.81;90.04
85039;BME280;75366;54.588;18.456;2024-02-28T09:25:12;101093.38;;;2.82;90.05
85039;BME280;75366;54.588;18.456;2024-02-28T09:30:13;101085.64;;;2.85;89.99
85039;BME280;75366;54.588;18.456;2024-02-28T09:35:46;101084.05;;;2.88;89.93
85039;BME280;75366;54.588;18.456;2024-02-28T09:41:14;101077.52;;;2.93;90.01
85039;BME280;75366;54.588;18.456;2024-02-28T09:46:36;101084.85;;;3.04;89.94
85039;BME280;75366;54.588;18.456;2024-02-28T09:51:38;101084.54;;;3.17;89.94
85039;BME280;75366;54.588;18.456;2024-02-28T09:56:40;101088.67;;;3.24;89.60
85039;BME280;75366;54.588;18.456;2024-02-28T10:01:43;101094.52;;;3.27;89.55
85039;BME280;75366;54.588;18.456;2024-02-28T10:06:46;101097.42;;;3.32;89.46
85039;BME280;75366;54.588;18.456;2024-02-28T10:11:49;101100.21;;;3.39;89.41
85039;BME280;75366;54.588;18.456;2024-02-28T10:16:50;101109.55;;;3.36;89.10
85039;BME280;75366;54.588;18.456;2024-02-28T10:21:53;101109.83;;;3.30;89.08
85039;BME280;75366;54.588;18.456;2024-02-28T10:26:55;101107.90;;;3.32;89.19
85039;BME280;75366;54.588;18.456;2024-02-28T10:32:16;101109.52;;;3.35;89.03
85039;BME280;75366;54.588;18.456;2024-02-28T10:37:19;101115.56;;;3.37;88.98
85039;BME280;75366;54.588;18.456;2024-02-28T10:42:22;101111.10;;;3.36;89.08
85039;BME280;75366;54.588;18.456;2024-02-28T10:47:28;101101.56;;;3.38;89.16
85039;BME280;75366;54.588;18.456;2024-02-28T10:52:33;101106.59;;;3.38;88.95
85039;BME280;75366;54.588;18.456;2024-02-28T10:57:36;101102.34;;;3.37;88.64
85039;BME280;75366;54.588;18.456;2024-02-28T11:02:38;101116.27;;;3.40;88.95
85039;BME280;75366;54.588;18.456;2024-02-28T11:07:43;101132.27;;;3.47;88.93
85039;BME280;75366;54.588;18.456;2024-02-28T11:12:54;101135.81;;;3.45;88.91
85039;BME280;75366;54.588;18.456;2024-02-28T11:18:07;101130.45;;;3.46;88.96
85039;BME280;75366;54.588;18.456;2024-02-28T11:23:11;101131.31;;;3.46;88.82
85039;BME280;75366;54.588;18.456;2024-02-28T11:28:14;101137.71;;;3.45;88.68
85039;BME280;75366;54.588;18.456;2024-02-28T11:33:16;101138.95;;;3.50;88.80
85039;BME280;75366;54.588;18.456;2024-02-28T11:38:20;101129.45;;;3.55;88.85
85039;BME280;75366;54.588;18.456;2024-02-28T11:43:23;101140.20;;;3.62;88.89
85039;BME280;75366;54.588;18.456;2024-02-28T11:48:27;101143.11;;;3.60;88.71
85039;BME280;75366;54.588;18.456;2024-02-28T11:53:29;101146.96;;;3.57;88.91
85039;BME280;75366;54.588;18.456;2024-02-28T11:58:31;101147.92;;;3.63;89.11
85039;BME280;75366;54.588;18.456;2024-02-28T12:03:32;101151.23;;;3.67;89.03
85039;BME280;75366;54.588;18.456;2024-02-28T12:08:34;101150.83;;;3.66;88.66
85039;BME280;75366;54.588;18.456;2024-02-28T12:13:37;101155.78;;;3.65;88.94
85039;BME280;75366;54.588;18.456;2024-02-28T12:18:40;101154.39;;;3.63;89.14
85039;BME280;75366;54.588;18.456;2024-02-28T12:23:42;101152.23;;;3.65;89.12
85039;BME280;75366;54.588;18.456;2024-02-28T12:28:43;101153.66;;;3.65;89.17
85039;BME280;75366;54.588;18.456;2024-02-28T12:33:45;101159.94;;;3.64;89.08
85039;BME280;75366;54.588;18.456;2024-02-28T12:38:47;101158.55;;;3.64;88.92
85039;BME280;75366;54.588;18.456;2024-02-28T12:43:48;101155.96;;;3.63;88.91
85039;BME280;75366;54.588;18.456;2024-02-28T12:48:50;101157.55;;;3.59;88.79
85039;BME280;75366;54.588;18.456;2024-02-28T12:54:12;101164.71;;;3.56;88.88
85039;BME280;75366;54.588;18.456;2024-02-28T12:59:34;101174.60;;;3.55;89.04
85039;BME280;75366;54.588;18.456;2024-02-28T13:04:55;101162.56;;;3.47;89.07
85039;BME280;75366;54.588;18.456;2024-02-28T13:10:17;101173.70;;;3.46;89.08
85039;BME280;75366;54.588;18.456;2024-02-28T13:15:40;101176.82;;;3.43;88.95
85039;BME280;75366;54.588;18.456;2024-02-28T13:21:01;101175.89;;;3.43;89.19
85039;BME280;75366;54.588;18.456;2024-02-28T13:26:05;101180.42;;;3.44;89.17
85039;BME280;75366;54.588;18.456;2024-02-28T13:31:07;101174.87;;;3.39;89.09
85039;BME280;75366;54.588;18.456;2024-02-28T13:36:11;101179.57;;;3.33;89.07
85039;BME280;75366;54.588;18.456;2024-02-28T13:41:13;101183.62;;;3.27;89.03
85039;BME280;75366;54.588;18.456;2024-02-28T13:46:15;101183.13;;;3.19;88.88
85039;BME280;75366;54.588;18.456;2024-02-28T13:51:17;101179.73;;;3.15;89.00
85039;BME280;75366;54.588;18.456;2024-02-28T13:56:19;101179.92;;;3.11;88.98
85039;BME280;75366;54.588;18.456;2024-02-28T14:01:21;101188.93;;;3.02;89.01
85039;BME280;75366;54.588;18.456;2024-02-28T14:06:23;101196.44;;;2.95;89.08
85039;BME280;75366;54.588;18.456;2024-02-28T14:11:24;101207.71;;;2.87;89.30
85039;BME280;75366;54.588;18.456;2024-02-28T14:16:46;101211.26;;;2.79;89.54
85039;BME280;75366;54.588;18.456;2024-02-28T14:22:08;101213.55;;;2.75;89.47
85039;BME280;75366;54.588;18.456;2024-02-28T14:27:11;101219.33;;;2.74;89.60
85039;BME280;75366;54.588;18.456;2024-02-28T14:32:14;101222.96;;;2.72;89.68
85039;BME280;75366;54.588;18.456;2024-02-28T14:37:16;101231.76;;;2.74;89.51
85039;BME280;75366;54.588;18.456;2024-02-28T14:42:18;101232.38;;;2.75;89.44
85039;BME280;75366;54.588;18.456;2024-02-28T14:47:20;101234.89;;;2.75;89.32
85039;BME280;75366;54.588;18.456;2024-02-28T14:52:21;101237.58;;;2.74;89.28
85039;BME280;75366;54.588;18.456;2024-02-28T14:57:23;101234.06;;;2.72;89.18
85039;BME280;75366;54.588;18.456;2024-02-28T15:02:25;101241.77;;;2.69;89.13
85039;BME280;75366;54.588;18.456;2024-02-28T15:07:26;101240.23;;;2.67;89.05
85039;BME280;75366;54.588;18.456;2024-02-28T15:12:28;101253.35;;;2.67;88.95
85039;BME280;75366;54.588;18.456;2024-02-28T15:17:30;101255.67;;;2.68;88.86
85039;BME280;75366;54.588;18.456;2024-02-28T15:22:32;101260.96;;;2.65;88.55
85039;BME280;75366;54.588;18.456;2024-02-28T15:27:34;101267.65;;;2.60;88.47
85039;BME280;75366;54.588;18.456;2024-02-28T15:32:36;101275.58;;;2.60;88.47
85039;BME280;75366;54.588;18.456;2024-02-28T15:37:40;101274.49;;;2.56;88.42
85039;BME280;75366;54.588;18.456;2024-02-28T15:42:42;101276.79;;;2.54;88.55
85039;BME280;75366;54.588;18.456;2024-02-28T15:47:44;101272.66;;;2.52;88.47
85039;BME280;75366;54.588;18.456;2024-02-28T15:52:45;101263.54;;;2.46;88.33
85039;BME280;75366;54.588;18.456;2024-02-28T15:57:47;101283.01;;;2.48;88.25
85039;BME280;75366;54.588;18.456;2024-02-28T16:02:48;101290.77;;;2.47;88.29
85039;BME280;75366;54.588;18.456;2024-02-28T16:08:10;101293.98;;;2.47;88.46
85039;BME280;75366;54.588;18.456;2024-02-28T16:13:12;101304.51;;;2.47;88.50
85039;BME280;75366;54.588;18.456;2024-02-28T16:18:33;101306.59;;;2.44;88.62
85039;BME280;75366;54.588;18.456;2024-02-28T16:23:35;101306.81;;;2.44;88.69
85039;BME280;75366;54.588;18.456;2024-02-28T16:28:37;101308.80;;;2.43;88.78
85039;BME280;75366;54.588;18.456;2024-02-28T16:33:38;101307.35;;;2.46;89.03
85039;BME280;75366;54.588;18.456;2024-02-28T16:38:42;101310.45;;;2.48;89.12
85039;BME280;75366;54.588;18.456;2024-02-28T16:43:48;101316.92;;;2.56;89.29
85039;BME280;75366;54.588;18.456;2024-02-28T16:48:51;101321.76;;;2.65;89.26
85039;BME280;75366;54.588;18.456;2024-02-28T16:53:53;101328.33;;;2.71;89.04
85039;BME280;75366;54.588;18.456;2024-02-28T16:58:54;101338.73;;;2.71;88.79
85039;BME280;75366;54.588;18.456;2024-02-28T17:03:56;101345.73;;;2.71;88.72
85039;BME280;75366;54.588;18.456;2024-02-28T17:09:17;101344.45;;;2.72;88.80
85039;BME280;75366;54.588;18.456;2024-02-28T17:14:27;101341.02;;;2.73;88.51
85039;BME280;75366;54.588;18.456;2024-02-28T17:19:29;101341.19;;;2.68;88.37
85039;BME280;75366;54.588;18.456;2024-02-28T17:24:30;101348.89;;;2.67;88.47
85039;BME280;75366;54.588;18.456;2024-02-28T17:29:32;101352.66;;;2.67;88.39
85039;BME280;75366;54.588;18.456;2024-02-28T17:34:34;101361.08;;;2.65;87.91
85039;BME280;75366;54.588;18.456;2024-02-28T17:39:36;101364.52;;;2.57;87.83
85039;BME280;75366;54.588;18.456;2024-02-28T17:44:39;101361.48;;;2.51;87.85
85039;BME280;75366;54.588;18.456;2024-02-28T17:49:41;101361.15;;;2.51;87.86
85039;BME280;75366;54.588;18.456;2024-02-28T17:54:42;101361.52;;;2.51;87.96
85039;BME280;75366;54.588;18.456;2024-02-28T17:59:43;101365.24;;;2.49;88.01
85039;BME280;75366;54.588;18.456;2024-02-28T18:05:05;101371.86;;;2.53;88.04
85039;BME280;75366;54.588;18.456;2024-02-28T18:10:27;101370.17;;;2.51;87.87
85039;BME280;75366;54.588;18.456;2024-02-28T18:15:28;101360.73;;;2.42;87.91
85039;BME280;75366;54.588;18.456;2024-02-28T18:20:50;101369.14;;;2.41;87.90
85039;BME280;75366;54.588;18.456;2024-02-28T18:26:11;101378.42;;;2.42;87.87
85039;BME280;75366;54.588;18.456;2024-02-28T18:31:33;101390.95;;;2.38;87.90
85039;BME280;75366;54.588;18.456;2024-02-28T18:36:35;101395.13;;;2.32;87.74
85039;BME280;75366;54.588;18.456;2024-02-28T18:41:56;101406.84;;;2.26;87.49
85039;BME280;75366;54.588;18.456;2024-02-28T18:46:59;101404.60;;;2.24;87.41
85039;BME280;75366;54.588;18.456;2024-02-28T18:52:01;101407.46;;;2.19;87.48
85039;BME280;75366;54.588;18.456;2024-02-28T18:57:03;101409.48;;;2.10;87.37
85039;BME280;75366;54.588;18.456;2024-02-28T19:02:05;101417.27;;;2.06;87.39
85039;BME280;75366;54.588;18.456;2024-02-28T19:07:06;101422.11;;;2.04;87.40
85039;BME280;75366;54.588;18.456;2024-02-28T19:12:28;101423.10;;;2.01;87.42
85039;BME280;75366;54.588;18.456;2024-02-28T19:17:49;101427.15;;;1.98;87.45
85039;BME280;75366;54.588;18.456;2024-02-28T19:23:11;101436.02;;;1.95;87.40
85039;BME280;75366;54.588;18.456;2024-02-28T19:28:32;101437.54;;;1.96;87.52
85039;BME280;75366;54.588;18.456;2024-02-28T19:33:53;101436.71;;;2.01;87.32
85039;BME280;75366;54.588;18.456;2024-02-28T19:39:15;101434.96;;;2.01;87.44
85039;BME280;75366;54.588;18.456;2024-02-28T19:44:37;101440.05;;;2.01;87.20
85039;BME280;75366;54.588;18.456;2024-02-28T19:49:38;101435.31;;;2.02;87.23
85039;BME280;75366;54.588;18.456;2024-02-28T19:54:40;101437.02;;;2.06;87.10
85039;BME280;75366;54.588;18.456;2024-02-28T19:59:41;101432.83;;;2.09;87.14
85039;BME280;75366;54.588;18.456;2024-02-28T20:04:43;101431.74;;;2.08;87.02
85039;BME280;75366;54.588;18.456;2024-02-28T20:09:45;101432.48;;;2.05;86.90
85039;BME280;75366;54.588;18.456;2024-02-28T20:14:47;101434.93;;;2.06;87.26
85039;BME280;75366;54.588;18.456;2024-02-28T20:19:48;101438.44;;;2.09;87.27
85039;BME280;75366;54.588;18.456;2024-02-28T20:24:50;101442.91;;;2.12;87.14
85039;BME280;75366;54.588;18.456;2024-02-28T20:29:51;101441.85;;;2.12;87.19
85039;BME280;75366;54.588;18.456;2024-02-28T20:34:53;101449.34;;;2.11;87.12
85039;BME280;75366;54.588;18.456;2024-02-28T20:39:54;101449.83;;;2.10;87.23
85039;BME280;75366;54.588;18.456;2024-02-28T20:44:56;101455.61;;;2.12;87.22
85039;BME280;75366;54.588;18.456;2024-02-28T20:50:17;101452.39;;;2.12;87.30
85039;BME280;75366;54.588;18.456;2024-02-28T20:55:19;101459.24;;;2.10;87.45
85039;BME280;75366;54.588;18.456;2024-02-28T21:00:23;101461.12;;;2.09;87.30
85039;BME280;75366;54.588;18.456;2024-02-28T21:05:25;101466.08;;;2.09;87.38
85039;BME280;75366;54.588;18.456;2024-02-28T21:10:26;101475.02;;;2.09;87.45
85039;BME280;75366;54.588;18.456;2024-02-28T21:15:28;101478.41;;;2.13;87.46
85039;BME280;75366;54.588;18.456;2024-02-28T21:20:30;101481.38;;;2.14;87.44
85039;BME280;75366;54.588;18.456;2024-02-28T21:25:31;101485.85;;;2.14;87.50
85039;BME280;75366;54.588;18.456;2024-02-28T21:30:33;101479.39;;;2.11;87.51
85039;BME280;75366;54.588;18.456;2024-02-28T21:35:34;101476.39;;;2.08;87.46
85039;BME280;75366;54.588;18.456;2024-02-28T21:40:37;101476.17;;;2.07;87.28
85039;BME280;75366;54.588;18.456;2024-02-28T21:45:39;101475.22;;;2.06;87.48
85039;BME280;75366;54.588;18.456;2024-02-28T21:50:41;101477.03;;;2.06;87.34
85039;BME280;75366;54.588;18.456;2024-02-28T21:55:44;101479.73;;;2.08;87.51
85039;BME280;75366;54.588;18.456;2024-02-28T22:00:45;101476.90;;;2.10;87.39
85039;BME280;75366;54.588;18.456;2024-02-28T22:05:47;101480.11;;;2.11;87.41
85039;BME280;75366;54.588;18.456;2024-02-28T22:10:49;101479.80;;;2.14;87.29
85039;BME280;75366;54.588;18.456;2024-02-28T22:15:51;101486.75;;;2.20;87.36
85039;BME280;75366;54.588;18.456;2024-02-28T22:20:53;101491.85;;;2.22;87.27
85039;BME280;75366;54.588;18.456;2024-02-28T22:25:57;101495.64;;;2.23;87.27
85039;BME280;75366;54.588;18.456;2024-02-28T22:30:59;101496.67;;;2.26;87.18
85039;BME280;75366;54.588;18.456;2024-02-28T22:36:01;101491.86;;;2.28;87.16
85039;BME280;75366;54.588;18.456;2024-02-28T22:41:03;101490.11;;;2.28;86.91
85039;BME280;75366;54.588;18.456;2024-02-28T22:46:05;101490.72;;;2.31;86.92
85039;BME280;75366;54.588;18.456;2024-02-28T22:51:07;101494.91;;;2.29;86.91
85039;BME280;75366;54.588;18.456;2024-02-28T22:56:08;101492.00;;;2.29;86.87
85039;BME280;75366;54.588;18.456;2024-02-28T23:01:10;101490.05;;;2.29;86.84
85039;BME280;75366;54.588;18.456;2024-02-28T23:06:12;101490.16;;;2.29;86.81
85039;BME280;75366;54.588;18.456;2024-02-28T23:11:14;101490.23;;;2.31;86.87
85039;BME280;75366;54.588;18.456;2024-02-28T23:16:36;101496.89;;;2.29;86.77
85039;BME280;75366;54.588;18.456;2024-02-28T23:21:57;101496.73;;;2.25;86.69
85039;BME280;75366;54.588;18.456;2024-02-28T23:27:19;101503.83;;;2.28;86.65
85039;BME280;75366;54.588;18.456;2024-02-28T23:32:40;101503.09;;;2.29;86.72
85039;BME280;75366;54.588;18.456;2024-02-28T23:37:42;101495.45;;;2.27;86.67
85039;BME280;75366;54.588;18.456;2024-02-28T23:42:44;101489.55;;;2.28;86.53
85039;BME280;75366;54.588;18.456;2024-02-28T23:47:46;101494.00;;;2.28;86.59
85039;BME280;75366;54.588;18.456;2024-02-28T23:52:47;101499.58;;;2.27;86.69
85039;BME280;75366;54.588;18.456;2024-02-28T23:58:09;101499.48;;;2.28;86.66
